Time;durP1;ratioP1;P1;durP2;ratioP2;P2;SDS_P1;SDS_P2;PMS_P1;PMS_P2;Temp;Humidity;BMP_temperature;BMP_pressure;BME280_temperature;BME280_humidity;BME280_pressure;Samples;Min_cycle;Max_cycle;Signal;HPM_P1;HPM_P2
2022/12/03 00:05:30;;;;;;;8.50;5.57;;;11.40;86.40;;;;;;10862001;32;20024;-75
2022/12/03 00:11:33;;;;;;;7.75;4.97;;;11.30;86.50;;;;;;10862727;32;20023;-72
2022/12/03 00:17:35;;;;;;;5.72;3.70;;;11.40;86.60;;;;;;10862527;32;20026;-72
2022/12/03 00:23:38;;;;;;;7.82;5.18;;;11.30;86.10;;;;;;10862442;32;20043;-73
2022/12/03 00:29:40;;;;;;;9.15;6.32;;;11.20;85.80;;;;;;10862246;32;20031;-72
2022/12/03 00:35:42;;;;;;;6.78;4.80;;;11.20;85.70;;;;;;11201076;26;20057;-94
2022/12/03 00:41:44;;;;;;;6.20;4.95;;;11.30;85.60;;;;;;11056557;32;20022;-93
2022/12/03 00:47:46;;;;;;;6.80;4.80;;;11.20;85.70;;;;;;11056068;32;20329;-95
2022/12/03 00:53:48;;;;;;;7.97;5.80;;;11.20;86.30;;;;;;11057564;32;20026;-96
2022/12/03 00:59:51;;;;;;;9.00;5.68;;;11.20;86.00;;;;;;11056933;32;20053;-94
2022/12/03 01:05:53;;;;;;;9.43;5.70;;;11.20;85.60;;;;;;11057098;32;20040;-95
2022/12/03 01:11:55;;;;;;;7.20;5.72;;;11.30;85.60;;;;;;11057633;32;20026;-95
2022/12/03 01:17:57;;;;;;;6.70;4.68;;;11.30;86.00;;;;;;11059008;32;20420;-95
2022/12/03 01:23:59;;;;;;;4.60;3.37;;;11.30;86.30;;;;;;11063849;32;20056;-94
2022/12/03 01:30:01;;;;;;;8.93;5.65;;;11.20;86.40;;;;;;11109330;26;20057;-73
2022/12/03 01:36:03;;;;;;;7.28;4.97;;;11.20;87.20;;;;;;10866857;32;20050;-73
2022/12/03 01:42:07;;;;;;;7.10;4.80;;;11.30;86.90;;;;;;10866706;32;20032;-73
2022/12/03 01:48:14;;;;;;;6.32;4.35;;;11.30;86.40;;;;;;10866646;32;20046;-73
2022/12/03 01:54:25;;;;;;;8.27;5.50;;;11.30;86.60;;;;;;10852999;32;20031;-73
2022/12/03 02:00:32;;;;;;;7.80;4.78;;;11.30;86.60;;;;;;10866196;32;20032;-73
2022/12/03 02:06:34;;;;;;;7.95;5.45;;;11.20;86.40;;;;;;10862186;32;20036;-73
2022/12/03 02:12:47;;;;;;;8.07;5.10;;;11.30;86.90;;;;;;10865777;32;20028;-73
2022/12/03 02:18:50;;;;;;;6.95;4.78;;;11.40;86.50;;;;;;10852437;32;20442;-73
2022/12/03 02:25:03;;;;;;;8.32;6.80;;;11.20;86.20;;;;;;10865391;32;20058;-73
2022/12/03 02:31:05;;;;;;;8.02;5.47;;;11.30;86.60;;;;;;10864408;32;20428;-74
2022/12/03 02:37:22;;;;;;;6.75;4.78;;;11.20;86.80;;;;;;10847800;32;20341;-74
2022/12/03 02:43:25;;;;;;;7.15;4.90;;;11.30;86.70;;;;;;10862237;32;20036;-73
2022/12/03 02:49:26;;;;;;;6.35;3.95;;;11.20;86.70;;;;;;10864802;32;20020;-73
2022/12/03 02:55:31;;;;;;;4.28;3.53;;;11.30;86.90;;;;;;10864453;32;20039;-73
2022/12/03 03:01:33;;;;;;;5.18;3.90;;;11.20;87.00;;;;;;10864440;32;20050;-73
2022/12/03 03:07:36;;;;;;;4.87;3.20;;;11.20;86.80;;;;;;10864237;32;20027;-73
2022/12/03 03:13:39;;;;;;;5.15;3.17;;;11.20;86.70;;;;;;10861503;32;20426;-73
2022/12/03 03:19:41;;;;;;;4.72;3.87;;;11.10;87.00;;;;;;10863748;32;20058;-73
2022/12/03 03:25:58;;;;;;;5.43;4.03;;;11.00;87.30;;;;;;10860204;32;20024;-73
2022/12/03 03:32:02;;;;;;;3.60;2.78;;;11.10;87.40;;;;;;10863681;32;20051;-74
2022/12/03 03:38:05;;;;;;;5.55;4.62;;;11.10;87.00;;;;;;10845951;32;20028;-73
2022/12/03 03:44:08;;;;;;;5.90;3.53;;;11.00;86.90;;;;;;10850095;32;20020;-73
2022/12/03 03:50:11;;;;;;;5.03;3.00;;;11.00;87.00;;;;;;10863149;32;20082;-73
2022/12/03 03:56:16;;;;;;;4.03;2.47;;;11.10;86.80;;;;;;10862789;32;20028;-73
2022/12/03 04:02:20;;;;;;;3.40;2.10;;;11.10;86.80;;;;;;10862751;32;20431;-73
2022/12/03 04:08:22;;;;;;;4.15;2.35;;;11.00;86.90;;;;;;10862454;32;20032;-73
2022/12/03 04:14:25;;;;;;;3.47;2.20;;;11.20;87.20;;;;;;10862308;32;20043;-73
2022/12/03 04:20:27;;;;;;;5.53;3.10;;;11.10;87.00;;;;;;10862317;32;20019;-73
2022/12/03 04:39:15;;;;;;;6.20;3.80;;;11.20;87.00;;;;;;10861296;32;20054;-73
2022/12/03 04:45:17;;;;;;;4.80;3.33;;;11.20;86.90;;;;;;10858945;32;20423;-73
2022/12/03 04:51:19;;;;;;;4.60;2.72;;;11.20;86.80;;;;;;10861931;32;20431;-73
2022/12/03 04:57:21;;;;;;;5.65;4.32;;;11.20;86.80;;;;;;10860156;32;20050;-73
2022/12/03 05:03:23;;;;;;;5.07;3.67;;;11.00;87.10;;;;;;10873522;32;20425;-73
2022/12/03 05:09:26;;;;;;;5.05;3.45;;;10.80;87.20;;;;;;10873263;32;20352;-73
2022/12/03 05:15:27;;;;;;;6.10;3.58;;;10.70;87.50;;;;;;10873178;32;20027;-74
2022/12/03 05:21:29;;;;;;;4.70;3.20;;;10.70;87.50;;;;;;10873194;32;20046;-74
2022/12/03 05:27:31;;;;;;;7.75;3.62;;;10.40;87.60;;;;;;10869731;32;20070;-74
2022/12/03 05:33:33;;;;;;;6.20;3.95;;;10.20;87.30;;;;;;10868712;32;20027;-73
2022/12/03 05:39:36;;;;;;;6.37;3.15;;;10.10;88.10;;;;;;10872606;32;20032;-74
2022/12/03 05:45:44;;;;;;;6.25;3.78;;;10.10;87.50;;;;;;10872368;32;20034;-73
2022/12/03 05:51:46;;;;;;;4.50;2.92;;;10.10;87.90;;;;;;10868144;32;20043;-73
2022/12/03 05:57:49;;;;;;;3.67;2.90;;;10.20;87.60;;;;;;10872100;32;20031;-73
2022/12/03 06:03:51;;;;;;;4.47;2.33;;;10.10;87.80;;;;;;10870633;32;20046;-76
2022/12/03 06:09:53;;;;;;;5.80;3.72;;;10.20;88.00;;;;;;10865806;32;20423;-74
2022/12/03 06:15:55;;;;;;;6.95;4.70;;;10.20;87.60;;;;;;10861451;32;20054;-74
2022/12/03 06:21:57;;;;;;;6.30;4.62;;;10.00;88.10;;;;;;10862273;32;20053;-73
2022/12/03 06:27:59;;;;;;;5.25;3.67;;;9.90;87.80;;;;;;10852053;32;20023;-73
2022/12/03 06:34:01;;;;;;;6.97;4.35;;;10.00;88.30;;;;;;10864839;32;20016;-73
2022/12/03 06:40:04;;;;;;;5.37;3.08;;;10.10;88.10;;;;;;10864967;32;20057;-73
2022/12/03 06:46:06;;;;;;;4.62;2.72;;;10.10;87.90;;;;;;10864954;32;20015;-73
2022/12/03 06:52:09;;;;;;;5.18;3.33;;;10.10;87.90;;;;;;10864772;32;20027;-73
2022/12/03 06:58:11;;;;;;;5.32;2.78;;;10.10;88.20;;;;;;10864355;32;20050;-73
2022/12/03 07:04:13;;;;;;;6.55;3.92;;;10.10;88.30;;;;;;10861887;32;20272;-73
2022/12/03 07:10:15;;;;;;;4.95;2.40;;;10.10;88.40;;;;;;10863663;32;20343;-74
2022/12/03 07:16:18;;;;;;;8.93;5.60;;;10.20;88.40;;;;;;10863517;32;20344;-73
2022/12/03 07:22:20;;;;;;;6.30;3.95;;;10.20;88.40;;;;;;10863231;32;20077;-72
2022/12/03 07:28:22;;;;;;;7.70;4.10;;;10.10;88.60;;;;;;10850464;32;20400;-73
2022/12/03 07:34:24;;;;;;;5.28;3.08;;;10.30;88.70;;;;;;10862366;32;20020;-73
2022/12/03 07:40:26;;;;;;;7.43;5.15;;;10.30;88.60;;;;;;10863158;32;20054;-73
2022/12/03 07:46:28;;;;;;;7.35;4.75;;;10.40;88.80;;;;;;10860718;32;20063;-73
2022/12/03 07:52:31;;;;;;;5.62;3.40;;;10.30;88.50;;;;;;10843482;32;20027;-73
2022/12/03 07:58:33;;;;;;;6.65;4.25;;;10.30;89.00;;;;;;10822706;32;20349;-73
2022/12/03 08:04:35;;;;;;;7.20;4.82;;;10.30;89.10;;;;;;10820642;33;20028;-73
2022/12/03 08:10:37;;;;;;;6.72;4.07;;;10.20;89.00;;;;;;10825293;33;20188;-73
2022/12/03 08:16:42;;;;;;;5.87;4.70;;;10.20;89.30;;;;;;10825233;33;20055;-73
2022/12/03 08:22:48;;;;;;;5.85;3.45;;;10.30;89.60;;;;;;10852940;32;20397;-72
2022/12/03 08:28:51;;;;;;;9.50;7.10;;;10.40;89.60;;;;;;10858537;32;20015;-72
2022/12/03 08:34:53;;;;;;;7.32;4.90;;;10.30;89.30;;;;;;10857632;32;20336;-72
2022/12/03 08:40:55;;;;;;;7.55;4.70;;;10.20;89.70;;;;;;10857448;32;20050;-72
2022/12/03 08:47:20;;;;;;;9.00;5.65;;;10.20;89.60;;;;;;10860270;32;20046;-72
2022/12/03 08:53:27;;;;;;;7.72;6.18;;;10.20;89.70;;;;;;10859066;32;20023;-73
2022/12/03 08:59:31;;;;;;;7.03;4.40;;;10.40;89.70;;;;;;10857109;32;20015;-72
2022/12/03 09:05:34;;;;;;;7.62;5.20;;;10.50;89.80;;;;;;10858696;32;20396;-72
2022/12/03 09:11:36;;;;;;;7.70;5.05;;;10.40;89.50;;;;;;10857966;32;20038;-72
2022/12/03 09:17:39;;;;;;;6.90;4.47;;;10.20;89.50;;;;;;10860659;32;20302;-72
2022/12/03 09:23:41;;;;;;;6.10;3.80;;;10.20;89.90;;;;;;10854676;32;20050;-72
2022/12/03 09:29:43;;;;;;;5.90;3.95;;;10.20;89.50;;;;;;10876603;27;20036;-72
2022/12/03 09:35:45;;;;;;;7.95;4.95;;;10.30;89.70;;;;;;10896949;32;20450;-72
2022/12/03 09:41:48;;;;;;;7.80;4.78;;;10.20;89.70;;;;;;10898603;32;20046;-72
2022/12/03 09:47:51;;;;;;;7.47;5.32;;;10.20;89.90;;;;;;10895088;32;20074;-72
2022/12/03 09:53:53;;;;;;;9.95;5.50;;;10.40;90.00;;;;;;10900760;32;20020;-72
2022/12/03 09:59:56;;;;;;;7.43;5.07;;;10.20;89.50;;;;;;10899500;32;20035;-72
2022/12/03 10:06:00;;;;;;;9.00;6.32;;;10.30;89.80;;;;;;10903212;32;20046;-72
2022/12/03 10:12:03;;;;;;;8.70;5.15;;;10.20;89.40;;;;;;10898911;32;20353;-73
2022/12/03 10:18:33;;;;;;;6.30;4.28;;;10.20;89.40;;;;;;10902503;32;20050;-72
2022/12/03 10:24:36;;;;;;;7.72;4.85;;;10.20;89.40;;;;;;10901002;32;20061;-72
2022/12/03 10:30:54;;;;;;;8.18;5.55;;;10.20;89.50;;;;;;10901660;32;20332;-72
2022/12/03 10:37:22;;;;;;;6.18;4.47;;;10.20;89.40;;;;;;10898949;32;20050;-73
2022/12/03 10:43:24;;;;;;;7.15;4.12;;;10.30;89.70;;;;;;10898083;32;20309;-73
2022/12/03 10:49:26;;;;;;;12.43;6.18;;;10.40;89.70;;;;;;10901353;32;20049;-74
2022/12/03 10:55:37;;;;;;;12.30;7.30;;;10.50;89.40;;;;;;10899971;32;20011;-74
2022/12/03 11:01:39;;;;;;;10.65;6.68;;;10.30;89.30;;;;;;10901500;32;20390;-74
2022/12/03 11:07:42;;;;;;;7.72;5.95;;;10.40;89.70;;;;;;10898073;32;20376;-74
2022/12/03 11:13:53;;;;;;;7.65;5.22;;;10.40;89.40;;;;;;10899009;32;20339;-73
2022/12/03 11:19:55;;;;;;;8.68;6.47;;;10.50;89.50;;;;;;10897806;32;20356;-74
2022/12/03 11:25:58;;;;;;;6.93;4.75;;;10.50;89.60;;;;;;10900850;32;20058;-73
2022/12/03 11:32:00;;;;;;;8.60;5.20;;;10.50;89.70;;;;;;10897847;32;20051;-74
2022/12/03 11:38:36;;;;;;;8.98;5.22;;;10.50;89.70;;;;;;10899707;32;20069;-74
2022/12/03 11:44:39;;;;;;;9.50;5.90;;;10.50;89.60;;;;;;10897461;32;20034;-74
2022/12/03 11:50:42;;;;;;;6.70;4.95;;;10.40;89.70;;;;;;10900158;32;20045;-74
2022/12/03 11:56:47;;;;;;;11.82;5.28;;;10.50;89.70;;;;;;10900306;32;20049;-74
2022/12/03 12:02:54;;;;;;;11.10;6.00;;;10.60;89.60;;;;;;10895763;32;20057;-74
2022/12/03 12:08:58;;;;;;;7.87;5.97;;;10.60;89.60;;;;;;10899868;32;20317;-73
2022/12/03 12:15:39;;;;;;;9.63;6.18;;;10.50;89.50;;;;;;10895943;32;20032;-73
2022/12/03 12:21:46;;;;;;;18.65;4.45;;;10.60;89.50;;;;;;10895496;32;20352;-73
2022/12/03 12:27:50;;;;;;;8.05;4.65;;;10.60;89.50;;;;;;10898358;32;20027;-75
2022/12/03 12:33:53;;;;;;;9.20;5.30;;;10.60;89.40;;;;;;10897350;32;20028;-74
2022/12/03 12:39:56;;;;;;;7.47;4.80;;;10.60;89.50;;;;;;10896579;32;20057;-74
2022/12/03 12:46:12;;;;;;;5.82;4.00;;;10.60;89.30;;;;;;10889045;32;20035;-74
2022/12/03 12:52:15;;;;;;;8.63;5.12;;;10.60;89.30;;;;;;10857740;32;20031;-75
2022/12/03 12:58:19;;;;;;;8.23;4.72;;;10.70;89.20;;;;;;10861306;32;20028;-75
2022/12/03 13:04:23;;;;;;;7.03;4.03;;;10.60;88.90;;;;;;10859411;32;20032;-74
2022/12/03 13:10:39;;;;;;;6.25;4.07;;;10.60;88.90;;;;;;10857959;32;20024;-73
2022/12/03 13:16:42;;;;;;;5.72;3.75;;;10.60;89.10;;;;;;10865609;32;20070;-73
2022/12/03 13:22:45;;;;;;;9.05;5.47;;;10.60;88.90;;;;;;10864183;32;20051;-74
2022/12/03 13:28:48;;;;;;;6.20;4.22;;;10.70;89.10;;;;;;10866715;32;20039;-73
2022/12/03 13:34:51;;;;;;;6.60;3.80;;;10.70;89.10;;;;;;10865610;32;20058;-74
2022/12/03 13:41:01;;;;;;;7.78;5.03;;;10.70;89.40;;;;;;10864930;32;20054;-74
2022/12/03 13:47:19;;;;;;;6.70;4.10;;;10.70;89.00;;;;;;10867041;32;20404;-74
2022/12/03 13:53:37;;;;;;;5.37;4.05;;;10.50;88.60;;;;;;10899566;32;20067;-74
2022/12/03 13:59:44;;;;;;;5.43;4.25;;;10.50;89.10;;;;;;10902476;32;20122;-73
2022/12/03 14:05:47;;;;;;;9.55;5.53;;;10.50;89.20;;;;;;10939176;32;20046;-74
2022/12/03 14:18:14;;;;;;;4.47;2.90;;;10.40;88.60;;;;;;10862426;32;20067;-73
2022/12/03 14:24:16;;;;;;;6.32;3.85;;;10.40;89.00;;;;;;10864325;32;20015;-74
2022/12/03 14:30:18;;;;;;;5.15;3.50;;;10.50;88.90;;;;;;10915154;32;20027;-74
2022/12/03 14:36:42;;;;;;;5.72;3.97;;;10.40;88.90;;;;;;10863530;32;20036;-73
2022/12/03 14:42:44;;;;;;;6.03;3.70;;;10.40;88.90;;;;;;10862263;32;20031;-74
2022/12/03 14:48:47;;;;;;;4.65;3.40;;;10.40;88.70;;;;;;10864859;32;20050;-74
2022/12/03 14:54:49;;;;;;;5.32;3.25;;;10.40;89.00;;;;;;10915048;32;20039;-73
2022/12/03 15:00:51;;;;;;;5.85;3.67;;;10.30;88.80;;;;;;10862036;32;20063;-74
2022/12/03 15:07:09;;;;;;;4.28;2.85;;;10.40;89.00;;;;;;10864441;32;20032;-73
2022/12/03 15:13:12;;;;;;;4.12;2.10;;;10.30;89.10;;;;;;10860590;32;20081;-73
2022/12/03 15:19:14;;;;;;;4.40;3.05;;;10.40;89.10;;;;;;10863007;32;20066;-73
2022/12/03 15:25:23;;;;;;;4.30;2.33;;;10.40;89.10;;;;;;10861966;32;20277;-73
2022/12/03 15:31:37;;;;;;;6.55;4.15;;;10.40;89.10;;;;;;10861553;32;20050;-74
2022/12/03 15:37:39;;;;;;;6.95;4.28;;;10.40;89.20;;;;;;10859858;32;20016;-73
2022/12/03 15:43:41;;;;;;;7.43;4.28;;;10.30;89.20;;;;;;10860768;32;20415;-73
2022/12/03 15:49:43;;;;;;;6.80;4.10;;;10.40;89.30;;;;;;10861932;32;20333;-74
2022/12/03 15:55:45;;;;;;;4.40;2.87;;;10.40;89.30;;;;;;10860859;32;20058;-73
2022/12/03 16:01:48;;;;;;;4.95;3.20;;;10.40;89.30;;;;;;10860011;32;20294;-73
2022/12/03 16:07:50;;;;;;;6.50;3.92;;;10.40;89.10;;;;;;10858995;32;20031;-73
2022/12/03 16:13:52;;;;;;;7.20;3.50;;;10.40;89.20;;;;;;10858653;32;20031;-74
2022/12/03 16:19:54;;;;;;;5.93;3.15;;;10.40;89.00;;;;;;10861326;32;20069;-74
2022/12/03 16:25:56;;;;;;;6.07;3.65;;;10.30;89.00;;;;;;10860165;32;20027;-73
2022/12/03 16:31:59;;;;;;;5.20;3.12;;;10.30;88.90;;;;;;10859353;32;20023;-73
2022/12/03 16:38:01;;;;;;;6.65;3.83;;;10.30;88.90;;;;;;10858550;32;20024;-73
2022/12/03 16:44:04;;;;;;;6.72;3.15;;;10.30;89.10;;;;;;10861406;32;20015;-73
2022/12/03 16:50:07;;;;;;;6.25;3.28;;;10.40;89.30;;;;;;10859666;32;20058;-73
2022/12/03 16:56:10;;;;;;;4.72;2.55;;;10.40;89.10;;;;;;10911973;32;20375;-73
2022/12/03 17:02:12;;;;;;;4.22;2.95;;;10.40;89.30;;;;;;10861102;32;20051;-74
2022/12/03 17:08:15;;;;;;;5.72;3.10;;;10.50;89.40;;;;;;10860917;32;20028;-73
2022/12/03 17:14:17;;;;;;;6.45;3.72;;;10.50;89.30;;;;;;10861057;32;20361;-74
2022/12/03 17:20:20;;;;;;;5.55;3.30;;;10.50;89.40;;;;;;10859689;32;20031;-74
2022/12/03 17:26:23;;;;;;;5.22;3.20;;;10.50;89.40;;;;;;10858862;32;20032;-74
2022/12/03 17:32:26;;;;;;;6.55;3.80;;;10.40;89.20;;;;;;10862977;27;20286;-75
2022/12/03 17:38:29;;;;;;;8.00;4.32;;;10.30;89.30;;;;;;10859814;32;20058;-74
2022/12/03 17:44:31;;;;;;;7.05;4.10;;;10.30;89.40;;;;;;10858541;32;20015;-73
2022/12/03 17:50:34;;;;;;;6.20;3.67;;;10.30;89.50;;;;;;10860056;32;20027;-75
2022/12/03 17:56:38;;;;;;;7.78;5.37;;;10.30;89.40;;;;;;10855782;32;20027;-75
2022/12/03 18:02:42;;;;;;;7.60;4.97;;;10.20;89.40;;;;;;10864015;32;20059;-73
2022/12/03 18:08:45;;;;;;;10.43;6.03;;;10.20;89.50;;;;;;10863192;32;20408;-74
2022/12/03 18:14:47;;;;;;;9.70;7.60;;;10.20;89.70;;;;;;10863447;32;20023;-73
2022/12/03 18:20:50;;;;;;;7.45;4.82;;;10.20;89.50;;;;;;10863227;32;20337;-72
2022/12/03 18:26:52;;;;;;;5.62;3.35;;;10.10;89.50;;;;;;10862320;32;20077;-75
2022/12/03 18:32:55;;;;;;;5.10;3.15;;;10.10;89.80;;;;;;10861326;32;20046;-77
2022/12/03 18:38:59;;;;;;;4.37;2.80;;;10.20;89.90;;;;;;10861625;32;20046;-77
2022/12/03 18:45:01;;;;;;;4.80;3.33;;;10.20;89.90;;;;;;10860974;32;20012;-75
2022/12/03 18:51:18;;;;;;;7.32;4.03;;;10.20;89.80;;;;;;10863002;32;20047;-76
2022/12/03 18:57:21;;;;;;;5.75;3.60;;;10.20;89.90;;;;;;10849162;32;20050;-77
2022/12/03 19:03:24;;;;;;;7.85;5.20;;;10.20;90.00;;;;;;10861187;32;20028;-77
2022/12/03 19:09:26;;;;;;;5.82;3.83;;;10.20;89.80;;;;;;10860764;32;20062;-77
2022/12/03 19:15:28;;;;;;;6.30;3.80;;;10.10;89.80;;;;;;10863714;32;20397;-76
2022/12/03 19:21:30;;;;;;;7.80;4.75;;;10.10;89.90;;;;;;10862081;32;20053;-76
2022/12/03 19:27:33;;;;;;;7.50;5.30;;;10.10;89.90;;;;;;10848592;32;20059;-76
2022/12/03 19:33:35;;;;;;;6.85;4.85;;;10.00;89.90;;;;;;10826569;32;20062;-75
2022/12/03 19:39:38;;;;;;;6.55;4.22;;;9.90;89.90;;;;;;10826363;33;20299;-75
2022/12/03 19:45:42;;;;;;;8.60;5.37;;;9.90;90.10;;;;;;10822879;33;20104;-75
2022/12/03 19:51:50;;;;;;;6.55;3.87;;;10.00;90.20;;;;;;10825865;33;20050;-75
2022/12/03 19:57:56;;;;;;;7.37;5.03;;;10.00;90.20;;;;;;10824308;33;20058;-75
2022/12/03 20:04:00;;;;;;;6.78;4.80;;;10.00;90.20;;;;;;10823540;33;20299;-75
2022/12/03 20:10:03;;;;;;;11.15;6.90;;;10.10;90.20;;;;;;10825710;33;20043;-75
2022/12/03 20:16:08;;;;;;;9.27;6.22;;;10.10;90.30;;;;;;10825485;33;20020;-75
2022/12/03 20:22:10;;;;;;;11.27;4.35;;;10.10;90.10;;;;;;10808029;32;20024;-77
2022/12/03 20:28:12;;;;;;;7.97;5.05;;;10.10;90.20;;;;;;10824118;33;20020;-76
2022/12/03 20:34:14;;;;;;;9.65;6.03;;;10.10;90.10;;;;;;10823717;33;20047;-75
2022/12/03 20:40:16;;;;;;;7.12;4.65;;;10.10;90.00;;;;;;10820719;33;20020;-75
2022/12/03 20:46:27;;;;;;;6.87;3.53;;;10.00;90.10;;;;;;10822076;33;20067;-76
2022/12/03 20:52:29;;;;;;;6.07;3.75;;;10.00;90.10;;;;;;10821266;33;20307;-75
2022/12/03 20:58:33;;;;;;;5.97;3.87;;;10.00;89.90;;;;;;10821187;33;20020;-73
2022/12/03 21:04:35;;;;;;;6.40;4.00;;;9.90;89.90;;;;;;10822840;33;20031;-74
2022/12/03 21:10:44;;;;;;;6.30;3.72;;;9.90;90.30;;;;;;10822108;33;20043;-74
2022/12/03 21:16:50;;;;;;;5.57;3.50;;;10.00;90.30;;;;;;10823761;33;20066;-75
2022/12/03 21:23:08;;;;;;;;;;;10.00;90.10;;;;;;10871813;32;20046;-75
2022/12/03 21:29:14;;;;;;;4.93;3.20;;;10.00;90.10;;;;;;10872707;32;19922;-73
2022/12/03 21:35:17;;;;;;;6.00;3.50;;;9.90;89.90;;;;;;10896051;32;20031;-74
2022/12/03 21:41:35;;;;;;;5.85;3.92;;;9.90;90.00;;;;;;10894005;32;20051;-74
2022/12/03 21:47:46;;;;;;;4.30;2.85;;;9.90;90.00;;;;;;10872373;32;20027;-73
2022/12/03 21:53:48;;;;;;;4.55;3.22;;;9.80;90.10;;;;;;10903745;32;20053;-75
2022/12/03 21:59:50;;;;;;;5.87;4.50;;;9.80;90.00;;;;;;10903630;32;20047;-75
2022/12/03 22:05:52;;;;;;;8.13;4.75;;;9.80;90.10;;;;;;10888385;32;20031;-74
2022/12/03 22:11:56;;;;;;;4.72;3.00;;;9.80;90.20;;;;;;10887641;32;20051;-75
2022/12/03 22:17:58;;;;;;;4.57;2.95;;;9.80;90.20;;;;;;10899830;32;20019;-74
2022/12/03 22:24:00;;;;;;;5.78;3.45;;;9.80;90.10;;;;;;10902653;32;20035;-74
2022/12/03 22:30:19;;;;;;;9.65;4.10;;;9.80;90.20;;;;;;10901724;32;20023;-74
2022/12/03 22:36:21;;;;;;;6.83;4.57;;;9.80;90.20;;;;;;10900670;32;20054;-76
2022/12/03 22:42:23;;;;;;;6.10;3.20;;;9.80;90.20;;;;;;10889233;32;20047;-76
2022/12/03 22:48:25;;;;;;;6.73;3.43;;;9.90;90.10;;;;;;10512311;32;12079763;-76
2022/12/03 22:54:27;;;;;;;3.62;2.25;;;9.90;90.10;;;;;;10825035;33;20024;-76
2022/12/03 23:00:36;;;;;;;7.75;3.62;;;9.90;90.10;;;;;;10812101;32;20054;-73
2022/12/03 23:06:38;;;;;;;3.53;2.42;;;9.90;90.10;;;;;;10821294;33;20416;-74
2022/12/03 23:12:40;;;;;;;14.48;5.97;;;9.90;90.20;;;;;;10821114;32;20020;-75
2022/12/03 23:18:42;;;;;;;5.82;3.17;;;9.90;90.10;;;;;;10901426;32;20046;-75
2022/12/03 23:24:44;;;;;;;4.50;2.72;;;9.90;90.10;;;;;;10866069;32;20401;-74
2022/12/03 23:30:46;;;;;;;4.03;2.62;;;9.90;90.20;;;;;;10875080;32;20042;-73
2022/12/03 23:36:48;;;;;;;3.42;2.42;;;9.90;89.90;;;;;;10900879;32;20019;-73
2022/12/03 23:42:50;;;;;;;4.25;2.75;;;10.00;90.00;;;;;;10898077;32;20027;-74
2022/12/03 23:48:53;;;;;;;4.20;2.62;;;10.00;89.90;;;;;;10897000;32;20023;-74
2022/12/03 23:54:55;;;;;;;4.28;2.47;;;10.00;89.70;;;;;;10900482;32;20024;-74
